Flight Track Log - Related Links

Times and Time Zones

All times are in EDT time to prevent confusion due to time zone crossing. See the SKW4733 flight status page for this flight to view local times or setup timezone preferences in your user account.

Time Position Orientation Groundspeed Altitude Reporting Facility
EDT Latitude Longitude Course Direction KTS MPH feet Rate Location/Type
Mon 10:06:05 AM 33.9500 -118.5000 349° North 201 231 2,700  Level Southern California TRACON
Mon 10:07:13 AM 33.9356 -118.5961 260° West 238 274 5,300 2,512 Climbing Los Angeles Center
Mon 10:08:00 AM 34.4187 -118.5214 349° North  Level Estimated
Mon 10:08:14 AM 33.9667 -118.6717 296° West 268 308 8,100  Level Los Angeles Center
Mon 10:09:00 AM 34.5377 -118.5500 349° North  Level Estimated
Mon 10:09:16 AM 34.0394 -118.6839 352° North 281 323 9,000  Level Los Angeles Center
Mon 10:10:00 AM 34.6567 -118.5786 349° North  Level Estimated
Mon 10:10:18 AM 34.1108 -118.6569 17° North 283 326 9,000  Level Los Angeles Center
Mon 10:11:00 AM 34.7711 -118.6062 349° North  Level Estimated
Mon 10:11:19 AM 34.1864 -118.6314 16° North 288 331 9,300  Level Los Angeles Center
Mon 10:12:21 AM 34.2628 -118.6536 346° North 285 328 11,700 2,516 Climbing Los Angeles Center
Mon 10:13:23 AM 34.3614 -118.6800 348° North 300 345 14,500 2,226 Climbing Los Angeles Center
Mon 10:14:25 AM 34.4514 -118.7028 348° North 327 376 16,300 1,452 Climbing Los Angeles Center
Mon 10:15:27 AM 34.5486 -118.7333 345° North 362 417 17,500 1,366 Climbing Los Angeles Center
Mon 10:16:28 AM 34.6464 -118.7850 337° Northwest 384 442 19,100 1,561 Climbing Los Angeles Center
Mon 10:17:30 AM 34.7483 -118.8353 338° Northwest 392 451 20,700 1,597 Climbing Los Angeles Center
Mon 10:18:32 AM 34.8547 -118.8817 340° North 401 461 22,400 1,887 Climbing Los Angeles Center
Mon 10:19:34 AM 34.9883 -118.9244 345° North 419 482 24,600 1,951 Climbing Los Angeles Center
Mon 10:20:35 AM 35.0964 -118.9622 344° North 408 470 26,400 1,366 Climbing Los Angeles Center
Mon 10:21:37 AM 35.2086 -119.0006 344° North 417 480 27,400 968 Climbing Los Angeles Center
Mon 10:22:39 AM 35.3269 -119.0406 345° North 435 501 28,400 919 Climbing Los Angeles Center
Mon 10:23:41 AM 35.4450 -119.0836 343° North 443 510 29,300 919 Climbing Los Angeles Center
Mon 10:24:43 AM 35.5636 -119.1311 342° North 448 516 30,300 1,258 Climbing Los Angeles Center
Mon 10:25:45 AM 35.7053 -119.1931 340° North 451 519 31,900 1,500 Climbing Los Angeles Center
Mon 10:26:47 AM 35.8206 -119.2447 340° North 446 513 33,400 1,237 Climbing Los Angeles Center
Mon 10:27:22 AM 35.8881 -119.2744 340° North 446 513 33,900 375 Climbing Oakland Center
Mon 10:28:23 AM 36.0031 -119.3253 340° North 443 510 34,000 49 Climbing Oakland Center
Mon 10:29:24 AM 36.1214 -119.3769 341° North 450 518 34,000  Level Oakland Center
Mon 10:30:25 AM 36.2392 -119.4292 340° North 453 521 34,000  Level Oakland Center
Mon 10:31:26 AM 36.3583 -119.4803 341° North 455 524 34,000  Level Oakland Center
Mon 10:32:27 AM 36.4800 -119.5372 339° North 465 535 34,000  Level Oakland Center
Mon 10:33:28 AM 36.6008 -119.5903 341° North 464 534 34,000  Level Oakland Center
Mon 10:34:29 AM 36.7197 -119.6439 340° North 457 526 34,000  Level Oakland Center
Mon 10:35:30 AM 36.8625 -119.7100 340° North 457 526 34,000  Level Oakland Center
Mon 10:36:31 AM 36.9822 -119.7628 341° North 458 527 34,000  Level Oakland Center
Mon 10:37:33 AM 37.1086 -119.8028 346° North 467 537 34,000  Level Oakland Center
Mon 10:38:34 AM 37.2200 -119.8350 347° North 468 539 34,000  Level Oakland Center
Mon 10:39:35 AM 37.3731 -119.8781 347° North 470 541 34,000  Level Oakland Center
Mon 10:40:36 AM 37.5014 -119.9147 347° North 471 542 34,000  Level Oakland Center
Mon 10:41:37 AM 37.6286 -119.9511 347° North 471 542 34,000  Level Oakland Center
Mon 10:42:38 AM 37.7564 -119.9875 347° North 472 543 34,000  Level Oakland Center
Mon 10:43:40 AM 37.8839 -120.0247 347° North 472 543 34,000  Level Oakland Center
Mon 10:44:40 AM 38.0119 -120.0600 348° North 472 543 34,000  Level Oakland Center
Mon 10:45:42 AM 38.1383 -120.0972 347° North 470 541 34,000  Level Oakland Center
Mon 10:46:43 AM 38.2661 -120.1353 347° North 472 543 34,000  Level Oakland Center
Mon 10:47:44 AM 38.3911 -120.1717 347° North 466 536 34,000  Level Oakland Center
Mon 10:48:45 AM 38.5194 -120.2086 347° North 472 543 34,000  Level Oakland Center
Mon 10:49:46 AM 38.6714 -120.2542 347° North 470 541 34,000  Level Oakland Center
Mon 10:50:47 AM 38.7975 -120.2908 347° North 468 539 34,000  Level Oakland Center
Mon 10:51:48 AM 38.9258 -120.3286 347° North 474 545 34,000  Level Oakland Center
Mon 10:52:49 AM 39.0514 -120.3669 347° North 467 537 34,000  Level Oakland Center
Mon 10:53:51 AM 39.1781 -120.4044 347° North 469 540 34,000  Level Oakland Center
Mon 10:54:52 AM 39.3069 -120.4428 347° North 475 547 34,000  Level Oakland Center
Mon 10:55:53 AM 39.4339 -120.4817 347° North 471 542 34,000  Level Oakland Center
Mon 10:56:54 AM 39.5611 -120.5194 347° North 471 542 34,000  Level Oakland Center
Mon 10:57:55 AM 39.6869 -120.5581 347° North 466 536 34,000  Level Oakland Center
Mon 10:58:56 AM 39.8406 -120.6044 347° North 473 544 34,000  Level Oakland Center
Mon 10:59:57 AM 39.9692 -120.6433 347° North 473 544 34,000  Level Oakland Center
Mon 11:00:59 AM 40.0856 -120.6806 346° North 478 550 34,000  Level Oakland Center
Mon 11:02:00 AM 40.2161 -120.7197 347° North 482 555 34,000  Level Oakland Center
Mon 11:03:01 AM 40.3453 -120.7583 347° North 480 552 34,000  Level Oakland Center
Mon 11:04:02 AM 40.5011 -120.8083 346° North 481 554 34,000  Level Oakland Center
Mon 11:05:03 AM 40.6058 -120.8417 346° North 477 549 34,000  Level Oakland Center
Mon 11:05:57 AM 40.7383 -120.8800 348° North 477 549 34,000  Level Seattle Center
Mon 11:06:58 AM 40.8656 -120.9222 346° North 474 545 34,000  Level Seattle Center
Mon 11:07:59 AM 40.9947 -120.9636 346° North 477 549 34,000  Level Seattle Center
Mon 11:09:00 AM 41.1236 -121.0056 346° North 479 551 34,000  Level Seattle Center
Mon 11:10:01 AM 41.2547 -121.0469 347° North 484 557 34,000  Level Seattle Center
Mon 11:11:01 AM 41.3850 -121.0886 347° North 481 554 34,000  Level Seattle Center
Mon 11:12:02 AM 41.5147 -121.1303 346° North 483 556 34,000  Level Seattle Center
Mon 11:13:03 AM 41.6661 -121.1797 346° North 470 541 34,000  Level Seattle Center
Mon 11:14:04 AM 41.7889 -121.2206 346° North 460 529 34,000  Level Seattle Center
Mon 11:15:04 AM 41.9142 -121.2603 347° North 464 534 34,000  Level Seattle Center
Mon 11:16:05 AM 42.0369 -121.3019 346° North 461 531 34,000  Level Seattle Center
Mon 11:17:06 AM 42.1603 -121.3425 346° North 461 531 34,000  Level Seattle Center
Mon 11:18:07 AM 42.2833 -121.3825 346° North 460 529 34,000  Level Seattle Center
Mon 11:19:08 AM 42.4064 -121.4231 346° North 460 529 34,000  Level Seattle Center
Mon 11:20:08 AM 42.5297 -121.4642 346° North 461 531 34,000  Level Seattle Center
Mon 11:21:09 AM 42.6517 -121.5036 347° North 455 524 34,000  Level Seattle Center
Mon 11:22:10 AM 42.7742 -121.5439 346° North 456 525 34,000  Level Seattle Center
Mon 11:23:11 AM 42.8961 -121.5847 346° North 453 521 34,000  Level Seattle Center
Mon 11:24:11 AM 43.0422 -121.6339 346° North 453 521 34,000  Level Seattle Center
Mon 11:25:12 AM 43.1628 -121.6733 347° North 449 517 34,000  Level Seattle Center
Mon 11:26:13 AM 43.2842 -121.7156 346° North 449 517 34,000  Level Seattle Center
Mon 11:27:14 AM 43.4053 -121.7567 346° North 450 518 34,000  Level Seattle Center
Mon 11:28:15 AM 43.5303 -121.7989 346° North 457 526 34,000  Level Seattle Center
Mon 11:29:16 AM 43.6547 -121.8422 346° North 462 532 34,000  Level Seattle Center
Mon 11:30:16 AM 43.7664 -121.8803 346° North 459 528 34,000  Level Seattle Center
Mon 11:31:17 AM 43.9153 -121.9308 346° North 459 528 34,000  Level Seattle Center
Mon 11:32:18 AM 44.0372 -121.9731 346° North 453 521 34,000  Level Seattle Center
Mon 11:33:19 AM 44.1600 -122.0181 345° North 457 526 34,000  Level Seattle Center
Mon 11:34:20 AM 44.2850 -122.0614 346° North 461 531 34,000  Level Seattle Center
Mon 11:35:20 AM 44.4092 -122.1050 346° North 462 532 34,000  Level Seattle Center
Mon 11:36:21 AM 44.5328 -122.1497 346° North 462 532 34,000  Level Seattle Center
Mon 11:37:22 AM 44.6569 -122.1947 346° North 456 525 34,000  Level Seattle Center
Mon 11:38:23 AM 44.7800 -122.2394 346° North 454 522 34,000  Level Seattle Center
Mon 11:39:24 AM 44.9086 -122.2867 345° North 450 518 34,000  Level Seattle Center
Mon 11:40:25 AM 45.0286 -122.3297 346° North 449 517 34,000  Level Seattle Center
Mon 11:41:26 AM 45.1481 -122.3719 346° North 446 513 34,000  Level Seattle Center
Mon 11:42:26 AM 45.2672 -122.4150 346° North 445 512 34,000  Level Seattle Center
Mon 11:43:27 AM 45.3856 -122.4578 346° North 443 510 34,000  Level Seattle Center
Mon 11:44:28 AM 45.5086 -122.5044 345° North 453 521 34,000  Level Seattle Center
Mon 11:45:29 AM 45.6303 -122.5494 345° North 455 524 34,000 -49 Level Seattle Center
Mon 11:46:30 AM 45.7494 -122.5947 345° North 449 517 33,900  Descending Seattle Center
Mon 11:47:31 AM 45.8700 -122.6214 351° North 444 511 34,000 -893 Climbing Seattle Center
Mon 11:48:31 AM 45.9903 -122.6506 350° North 441 507 32,100 -2,132 Descending Seattle Center
Mon 11:49:32 AM 46.1072 -122.6814 350° North 431 496 29,700 -2,508 Descending Seattle Center
Mon 11:50:33 AM 46.2378 -122.6731 North 413 475 27,000 -2,410 Descending Seattle Center
Mon 11:51:34 AM 46.3456 -122.6564 North 393 452 24,800 -2,066 Descending Seattle Center
Mon 11:52:35 AM 46.4508 -122.6400 North 382 440 22,800 -1,983 Descending Seattle Center
Mon 11:53:35 AM 46.5558 -122.6244 North 380 437 20,800 -1,983 Descending Seattle Center
Mon 11:54:36 AM 46.6569 -122.6075 North 369 425 18,800 -2,190 Descending Seattle Center
Mon 11:54:38 AM 46.6686 -122.6072 North 368 423 18,500 -2,066 Descending Seattle Center
Mon 11:55:37 AM 46.7664 -122.5919 North 365 420 16,700 -1,890 Descending Seattle Center
Mon 11:55:51 AM 46.7881 -122.5881 North 353 406 16,200 -1,770 Descending Seattle Center
Mon 11:56:38 AM 46.8597 -122.5761 North 336 387 14,900 -1,770 Descending Seattle Center
Mon 11:56:52 AM 46.8800 -122.5742 North 330 380 14,400 -1,574 Descending Seattle Center
Mon 11:57:39 AM 46.9481 -122.5583 North 323 372 13,300 -1,343 Descending Seattle Center
Mon 11:57:59 AM 46.9808 -122.5422 19° North 314 361 12,900 -1,200 Descending Seattle Center
Mon 11:58:39 AM 47.0381 -122.5181 16° North 315 362 12,100 -1,200 Descending Seattle Center
Mon 11:58:59 AM 47.0631 -122.5075 16° North 310 357 11,700 -1,065 Descending Seattle Center
Mon 11:59:41 AM 47.1203 -122.4933 10° North 303 349 11,000 -982 Descending Seattle Center
Mon 11:59:54 AM 47.1392 -122.4922 North 294 338 10,800 -900 Descending Seattle Center
Mon 12:00:41 PM 47.1997 -122.4786 North 287 330 10,100 -984 Descending Seattle Center
Mon 12:00:55 PM 47.2172 -122.4758 North 283 326 9,800 -984 Descending Seattle Center
Mon 12:01:42 PM 47.2778 -122.4672 North 284 327 9,100 -873 Descending Seattle Center
Mon 12:01:50 PM 47.2900 -122.4653 North 283 326 9,000 -689 Descending Seattle Center
Mon 12:02:43 PM 47.3525 -122.4561 North 270 311 8,400 -700 Descending Seattle Center
Mon 12:02:50 PM 47.3647 -122.4539 North 268 308 8,300 -892 Descending Seattle Center
Mon 12:03:57 PM 47.4414 -122.4578 358° North 243 280 7,300 -1,043 Descending Seattle Center
Mon 12:04:45 PM 47.4939 -122.4550 North 222 255 6,300 -1,200 Descending Seattle Center
Mon 12:04:52 PM 47.4986 -122.4558 353° North 213 245 6,200 -1,500 Descending Seattle Center
Mon 12:05:45 PM 47.5508 -122.4550 North 206 237 4,800 -1,519 Descending Seattle Center
Mon 12:06:11 PM 47.5744 -122.4567 357° North 203 234 4,200 -1,475 Descending Seattle Center
Mon 12:06:46 PM 47.6061 -122.4414 18° North 211 243 3,300 -1,256 Descending Seattle Center
Mon 12:06:54 PM 47.6089 -122.4344 59° Northeast 218 251 3,300 -98 Level Seattle Center
Mon 12:07:47 PM 47.6114 -122.3542 87° East 213 245 3,200 -111 Descending Seattle Center
Mon 12:07:48 PM 47.6108 -122.3544 199° South 215 247 3,200 -689 Level Seattle Center
Mon 12:08:48 PM 47.5650 -122.3153 150° Southeast 211 243 2,500 -806 Descending Seattle Center
Mon 12:08:55 PM 47.5611 -122.3164 191° South 210 242 2,300 -984 Descending Seattle Center
Mon 12:09:49 PM 47.5150 -122.3181 181° South 178 205 1,500 -885 Descending Seattle Center
Mon 12:09:56 PM 47.5086 -122.3192 187° South 154 177 1,400 -800 Descending Seattle Center
Mon 12:10:49 PM 47.4756 -122.3175 178° South 145 167 700 -800 Descending Seattle Center
Mon 12:10:56 PM 47.4703 -122.3172 178° South 131 151 600 -295 Descending Seattle Center
Mon 12:11:50 PM 47.4381 -122.3186 182° South 139 160 400 -222 Descending Seattle Center

Login

Don't have an account? Register now (free) for customized features, flight alerts, and more!